Time;durP1;ratioP1;P1;durP2;ratioP2;P2;SDS_P1;SDS_P2;PMS_P1;PMS_P2;Temp;Humidity;BMP_temperature;BMP_pressure;BME280_temperature;BME280_humidity;BME280_pressure;Samples;Min_cycle;Max_cycle;Signal;HPM_P1;HPM_P2
2021/12/20 00:01:35;;;;;;;5.50;2.05;;;8.40;99.90;;;;;;4937141;29;20491;-79
2021/12/20 00:04:01;;;;;;;8.07;2.25;;;8.30;99.90;;;;;;4936719;28;20028;-79
2021/12/20 00:06:27;;;;;;;5.78;2.35;;;8.40;99.90;;;;;;4937477;29;20118;-78
2021/12/20 00:08:52;;;;;;;9.32;2.78;;;8.40;99.90;;;;;;4937312;29;20118;-78
2021/12/20 00:11:18;;;;;;;5.57;1.85;;;8.40;99.90;;;;;;4937560;29;20484;-80
2021/12/20 00:13:43;;;;;;;6.97;2.00;;;8.40;99.90;;;;;;4937275;29;20506;-78
2021/12/20 00:16:09;;;;;;;6.72;2.25;;;8.40;99.90;;;;;;4954348;28;20023;-81
2021/12/20 00:18:34;;;;;;;9.13;2.95;;;8.40;99.90;;;;;;4937234;29;20027;-78
2021/12/20 00:21:00;;;;;;;6.22;2.17;;;8.40;99.90;;;;;;4937109;29;20027;-79
2021/12/20 00:23:26;;;;;;;12.98;3.25;;;8.40;99.90;;;;;;4936267;29;20524;-79
2021/12/20 00:25:52;;;;;;;10.18;2.50;;;8.30;99.90;;;;;;4936690;29;20122;-79
2021/12/20 00:28:18;;;;;;;12.23;2.90;;;8.20;99.90;;;;;;4936344;29;20020;-78
2021/12/20 00:30:45;;;;;;;9.70;2.13;;;8.20;99.90;;;;;;4948425;29;20058;-79
2021/12/20 00:33:11;;;;;;;8.63;2.10;;;8.20;99.90;;;;;;4954387;28;20055;-80
2021/12/20 00:35:37;;;;;;;11.68;2.58;;;8.20;99.90;;;;;;4952440;28;20062;-78
2021/12/20 00:40:48;;;;;;;9.82;2.78;;;8.10;99.90;;;;;;4954279;28;20098;-79
2021/12/20 00:43:15;;;;;;;6.55;2.08;;;8.10;99.90;;;;;;4936956;29;20034;-81
2021/12/20 00:45:41;;;;;;;9.90;2.30;;;8.10;99.90;;;;;;4952020;28;20023;-81
2021/12/20 00:48:07;;;;;;;12.05;2.63;;;8.20;99.90;;;;;;4953013;28;20121;-82
2021/12/20 00:50:33;;;;;;;7.72;2.67;;;8.20;99.90;;;;;;4952214;28;20061;-82
2021/12/20 00:52:59;;;;;;;7.85;2.72;;;8.20;99.90;;;;;;4951614;29;20042;-80
2021/12/20 00:55:27;;;;;;;7.30;2.47;;;8.20;99.90;;;;;;4952605;29;20024;-79
2021/12/20 00:57:54;;;;;;;11.05;2.25;;;8.20;99.90;;;;;;4952638;29;20059;-78
2021/12/20 01:00:25;;;;;;;6.55;1.98;;;8.20;99.90;;;;;;4935434;29;20054;-83
2021/12/20 01:02:52;;;;;;;9.00;2.63;;;8.20;99.90;;;;;;4952558;28;20031;-80
2021/12/20 01:05:17;;;;;;;4.55;2.25;;;8.20;99.90;;;;;;4951974;28;20055;-80
2021/12/20 01:07:43;;;;;;;6.88;2.03;;;8.20;99.90;;;;;;4952603;29;20448;-84
2021/12/20 01:10:10;;;;;;;7.22;2.38;;;8.20;99.90;;;;;;4952312;28;20353;-79
2021/12/20 01:12:49;;;;;;;9.43;3.47;;;8.30;99.90;;;;;;4951545;29;20074;-79
2021/12/20 01:15:33;;;;;;;9.57;2.35;;;8.20;99.90;;;;;;4951991;28;20026;-79
2021/12/20 01:17:59;;;;;;;10.82;2.95;;;8.20;99.90;;;;;;4949326;28;20031;-78
2021/12/20 01:20:25;;;;;;;7.45;2.80;;;8.20;99.90;;;;;;4951430;28;20062;-79
2021/12/20 01:22:51;;;;;;;14.50;3.13;;;8.10;99.90;;;;;;4952532;29;20034;-81
2021/12/20 01:25:19;;;;;;;9.68;2.88;;;8.00;99.90;;;;;;4951787;28;20051;-83
2021/12/20 01:27:45;;;;;;;7.70;2.13;;;8.00;99.90;;;;;;4935280;29;20038;-81
2021/12/20 01:30:13;;;;;;;11.55;2.28;;;8.10;99.90;;;;;;4951509;28;20047;-78
2021/12/20 01:32:40;;;;;;;10.90;2.78;;;8.10;99.90;;;;;;4935367;29;20035;-79
2021/12/20 01:35:06;;;;;;;9.18;3.00;;;8.10;99.90;;;;;;4951181;29;20015;-82
2021/12/20 01:37:32;;;;;;;8.45;2.40;;;8.10;99.90;;;;;;4950453;28;20035;-79
2021/12/20 01:39:59;;;;;;;10.02;2.45;;;8.10;99.90;;;;;;4951412;28;20034;-81
2021/12/20 01:42:26;;;;;;;8.50;2.45;;;8.10;99.90;;;;;;4950837;28;20047;-80
2021/12/20 01:44:56;;;;;;;9.15;3.25;;;8.10;99.90;;;;;;4951743;28;20027;-82
2021/12/20 01:47:22;;;;;;;13.10;3.55;;;8.10;99.90;;;;;;4951150;28;20038;-79
2021/12/20 01:50:01;;;;;;;11.77;3.33;;;8.10;99.90;;;;;;4951681;28;20046;-82
2021/12/20 01:52:29;;;;;;;9.40;2.95;;;8.10;99.90;;;;;;4951473;28;20114;-80
2021/12/20 01:54:56;;;;;;;7.38;2.38;;;8.10;99.90;;;;;;4952176;29;20503;-81
2021/12/20 01:57:24;;;;;;;9.10;2.60;;;8.10;99.90;;;;;;4935602;28;20075;-81
2021/12/20 01:59:49;;;;;;;9.73;3.30;;;8.10;99.90;;;;;;4951205;28;20047;-79
2021/12/20 02:02:15;;;;;;;8.30;3.42;;;8.10;99.90;;;;;;4950406;29;20042;-80
2021/12/20 02:04:47;;;;;;;7.47;1.88;;;8.10;99.90;;;;;;4951298;28;20027;-81
2021/12/20 02:07:32;;;;;;;7.80;2.20;;;8.10;99.90;;;;;;4951256;29;20058;-81
2021/12/20 02:09:57;;;;;;;9.48;3.00;;;8.10;99.90;;;;;;4950228;28;20027;-82
2021/12/20 02:12:23;;;;;;;14.23;3.50;;;8.10;99.90;;;;;;4951580;28;20035;-82
2021/12/20 02:14:49;;;;;;;5.80;2.13;;;8.00;99.90;;;;;;4951234;28;20023;-80
2021/12/20 02:17:14;;;;;;;7.38;2.47;;;8.00;99.90;;;;;;4950318;28;20035;-81
2021/12/20 02:19:40;;;;;;;14.57;2.90;;;8.00;99.90;;;;;;4951010;28;20272;-82
2021/12/20 02:22:06;;;;;;;11.75;2.72;;;8.00;99.90;;;;;;4951214;28;20107;-81
2021/12/20 02:24:32;;;;;;;9.45;3.47;;;7.90;99.90;;;;;;4950240;29;20492;-80
2021/12/20 02:26:57;;;;;;;9.52;3.17;;;7.90;99.90;;;;;;4951191;28;20170;-81
2021/12/20 02:29:39;;;;;;;8.80;2.60;;;7.90;99.90;;;;;;4951270;29;20511;-81
2021/12/20 02:37:32;;;;;;;8.10;2.63;;;7.80;99.90;;;;;;4951696;28;20118;-82
2021/12/20 02:39:58;;;;;;;11.77;3.28;;;7.90;99.90;;;;;;4952014;28;20074;-80
2021/12/20 02:42:30;;;;;;;11.77;3.13;;;7.90;99.90;;;;;;4951230;28;20492;-82
2021/12/20 02:47:50;;;;;;;10.65;3.17;;;7.90;99.90;;;;;;4948741;28;20089;-80
2021/12/20 02:50:16;;;;;;;10.07;2.38;;;7.90;99.90;;;;;;4954690;28;20039;-81
2021/12/20 02:52:42;;;;;;;9.40;2.83;;;7.90;99.90;;;;;;4955387;28;20031;-81
2021/12/20 02:55:09;;;;;;;10.25;2.85;;;7.80;99.90;;;;;;4955052;28;20019;-82
2021/12/20 02:57:37;;;;;;;12.25;3.92;;;7.80;99.90;;;;;;4955601;28;20023;-80
2021/12/20 03:00:09;;;;;;;13.15;4.18;;;7.80;99.90;;;;;;4953915;28;20050;-80
2021/12/20 03:02:35;;;;;;;8.13;2.67;;;7.80;99.90;;;;;;4954288;28;20035;-79
2021/12/20 03:05:02;;;;;;;11.32;2.92;;;7.80;99.90;;;;;;4954058;28;20121;-79
2021/12/20 03:07:28;;;;;;;8.27;2.38;;;7.80;99.90;;;;;;4953988;28;20484;-82
2021/12/20 03:10:00;;;;;;;13.35;2.75;;;7.80;99.90;;;;;;4954366;28;20022;-79
2021/12/20 03:12:29;;;;;;;10.88;2.58;;;7.80;99.90;;;;;;4953654;29;20020;-82
2021/12/20 03:15:03;;;;;;;11.45;3.47;;;7.80;99.90;;;;;;4954617;28;20038;-80
2021/12/20 03:17:30;;;;;;;12.50;2.72;;;7.80;99.90;;;;;;4939126;28;20583;-82
2021/12/20 03:19:55;;;;;;;11.52;2.55;;;7.80;99.90;;;;;;4951341;28;20023;-78
2021/12/20 03:22:21;;;;;;;7.97;2.90;;;7.80;99.90;;;;;;4938134;29;20130;-82
2021/12/20 03:24:48;;;;;;;9.18;2.88;;;7.80;99.90;;;;;;4938209;29;20110;-79
2021/12/20 03:27:14;;;;;;;8.85;3.42;;;7.80;99.90;;;;;;4937861;29;20058;-79
2021/12/20 03:29:40;;;;;;;15.00;3.75;;;7.80;99.90;;;;;;4934539;29;20079;-81
2021/12/20 03:32:05;;;;;;;14.98;3.28;;;7.80;99.90;;;;;;4934840;29;20024;-78
2021/12/20 03:34:31;;;;;;;13.50;3.17;;;7.70;99.90;;;;;;4933989;29;20024;-83
2021/12/20 03:36:57;;;;;;;12.48;3.10;;;7.70;99.90;;;;;;4934957;29;20053;-80
2021/12/20 03:39:22;;;;;;;8.93;2.70;;;7.70;99.90;;;;;;4935628;29;20035;-82
2021/12/20 03:41:48;;;;;;;9.30;3.50;;;7.70;99.90;;;;;;4933697;29;20381;-81
2021/12/20 03:44:14;;;;;;;9.88;2.78;;;7.80;99.90;;;;;;4933309;29;20024;-78
2021/12/20 03:46:40;;;;;;;17.00;3.40;;;7.80;99.90;;;;;;4948175;28;20086;-80
2021/12/20 03:49:07;;;;;;;9.45;2.58;;;7.80;99.90;;;;;;4931969;29;20032;-78
2021/12/20 03:51:33;;;;;;;9.27;2.58;;;7.80;99.90;;;;;;4942880;29;20491;-78
2021/12/20 03:53:58;;;;;;;11.93;2.85;;;7.80;99.90;;;;;;4941209;28;20027;-81
2021/12/20 03:56:25;;;;;;;12.35;2.90;;;7.80;99.90;;;;;;4935830;29;20086;-79
2021/12/20 03:58:50;;;;;;;13.15;2.90;;;7.80;99.90;;;;;;4933890;29;20020;-79
2021/12/20 04:01:16;;;;;;;10.50;2.70;;;7.70;99.90;;;;;;4933588;29;20342;-81
2021/12/20 04:03:43;;;;;;;10.93;3.17;;;7.80;99.90;;;;;;4934579;29;20396;-79
2021/12/20 04:06:13;;;;;;;8.68;2.58;;;7.70;99.90;;;;;;4934760;29;20372;-79
2021/12/20 04:08:39;;;;;;;8.85;2.28;;;7.70;99.90;;;;;;4935194;29;20089;-79
2021/12/20 04:11:05;;;;;;;7.57;2.70;;;7.70;99.90;;;;;;4953580;29;20428;-78
2021/12/20 04:13:32;;;;;;;13.68;3.15;;;7.80;99.90;;;;;;4944292;28;20166;-78
2021/12/20 04:15:58;;;;;;;11.52;3.40;;;7.80;99.90;;;;;;4934262;29;20031;-77
2021/12/20 04:18:25;;;;;;;9.90;3.00;;;7.80;99.90;;;;;;4934234;29;20435;-82
2021/12/20 04:20:51;;;;;;;14.10;2.92;;;7.70;99.90;;;;;;4929677;29;20469;-78
2021/12/20 04:23:16;;;;;;;7.63;2.88;;;7.80;99.90;;;;;;4933400;29;20046;-78
2021/12/20 04:25:42;;;;;;;12.30;2.88;;;7.70;99.90;;;;;;4932324;29;20030;-79
2021/12/20 04:28:08;;;;;;;9.57;2.78;;;7.70;99.90;;;;;;4934188;29;20032;-79
2021/12/20 04:30:34;;;;;;;11.07;2.60;;;7.70;99.90;;;;;;4930844;29;20054;-78
2021/12/20 04:33:00;;;;;;;13.52;3.80;;;7.70;99.90;;;;;;4938482;28;20472;-81
2021/12/20 04:35:26;;;;;;;8.88;3.13;;;7.70;99.90;;;;;;4952729;28;20051;-78
2021/12/20 04:37:53;;;;;;;10.77;2.60;;;7.70;99.90;;;;;;4942465;28;20074;-82
2021/12/20 04:40:21;;;;;;;8.75;2.20;;;7.70;99.90;;;;;;4933489;29;20043;-77
2021/12/20 04:42:54;;;;;;;12.13;2.85;;;7.70;99.90;;;;;;4933854;29;20453;-79
2021/12/20 04:45:20;;;;;;;11.05;2.92;;;7.70;99.90;;;;;;4932920;29;20496;-79
2021/12/20 04:47:46;;;;;;;9.32;3.30;;;7.60;99.90;;;;;;4938746;29;20055;-77
2021/12/20 04:50:12;;;;;;;10.38;2.60;;;7.60;99.90;;;;;;4937086;29;20015;-81
2021/12/20 04:52:38;;;;;;;9.80;2.83;;;7.60;99.90;;;;;;4953399;28;20035;-78
2021/12/20 04:55:07;;;;;;;7.38;2.22;;;7.60;99.90;;;;;;4951955;28;20027;-80
2021/12/20 04:57:32;;;;;;;6.10;1.63;;;7.70;99.90;;;;;;4951427;28;20027;-80
2021/12/20 04:59:58;;;;;;;6.82;2.15;;;7.70;99.90;;;;;;4953424;28;20027;-81
2021/12/20 05:02:24;;;;;;;7.40;1.98;;;7.70;99.90;;;;;;4952511;28;20045;-83
2021/12/20 05:04:49;;;;;;;9.57;3.30;;;7.70;99.90;;;;;;4952266;29;20011;-77
2021/12/20 05:07:16;;;;;;;9.27;2.47;;;7.70;99.90;;;;;;4952372;29;20399;-80
2021/12/20 05:09:42;;;;;;;10.35;3.22;;;7.60;99.90;;;;;;4951837;29;20122;-77
2021/12/20 05:12:14;;;;;;;6.60;2.40;;;7.60;99.90;;;;;;4951713;28;20021;-82
2021/12/20 05:14:43;;;;;;;10.43;2.75;;;7.70;99.90;;;;;;4941324;29;20882;-79
2021/12/20 05:17:10;;;;;;;5.18;2.08;;;7.70;99.90;;;;;;4947378;28;20122;-78
2021/12/20 05:19:36;;;;;;;11.95;4.22;;;7.70;99.90;;;;;;4930249;29;20023;-81
2021/12/20 05:22:02;;;;;;;10.48;3.17;;;7.70;99.90;;;;;;4941341;29;20051;-78
2021/12/20 05:24:27;;;;;;;5.55;2.58;;;7.70;99.90;;;;;;4934328;29;20046;-82
2021/12/20 05:26:53;;;;;;;9.38;2.80;;;7.70;99.90;;;;;;4951376;29;20071;-81
2021/12/20 05:29:19;;;;;;;13.73;3.30;;;7.60;99.90;;;;;;4942262;29;20044;-80
2021/12/20 05:31:44;;;;;;;6.88;2.72;;;7.50;99.90;;;;;;4932388;29;20032;-78
2021/12/20 05:34:10;;;;;;;6.95;2.03;;;7.50;99.90;;;;;;4932224;29;20380;-79
2021/12/20 05:36:35;;;;;;;6.95;2.22;;;7.50;99.90;;;;;;4932400;29;20030;-79
2021/12/20 05:39:02;;;;;;;7.75;2.50;;;7.50;99.90;;;;;;4932272;29;20031;-78
2021/12/20 05:41:28;;;;;;;6.13;1.83;;;7.50;99.90;;;;;;4931350;29;20039;-78
2021/12/20 05:43:53;;;;;;;7.47;2.83;;;7.40;99.90;;;;;;4932522;29;20075;-82
2021/12/20 05:46:19;;;;;;;10.25;2.38;;;7.40;99.90;;;;;;4932212;29;20027;-82
2021/12/20 05:48:44;;;;;;;8.43;2.40;;;7.40;99.90;;;;;;4933276;29;20031;-78
2021/12/20 05:51:10;;;;;;;3.95;1.67;;;7.40;99.90;;;;;;4928241;29;20481;-82
2021/12/20 05:53:35;;;;;;;9.93;3.15;;;7.40;99.90;;;;;;4930544;29;20122;-79
2021/12/20 05:56:01;;;;;;;5.55;1.90;;;7.40;99.90;;;;;;4929473;29;20377;-81
2021/12/20 05:58:26;;;;;;;8.18;2.67;;;7.50;99.90;;;;;;4930384;29;20522;-78
2021/12/20 06:00:52;;;;;;;4.35;1.60;;;7.50;99.90;;;;;;4926454;29;20044;-79
2021/12/20 06:03:18;;;;;;;7.13;1.60;;;7.40;99.90;;;;;;4933265;29;20019;-79
2021/12/20 06:05:44;;;;;;;5.90;1.70;;;7.40;99.90;;;;;;4932145;29;20392;-78
2021/12/20 06:08:10;;;;;;;5.32;1.80;;;7.40;99.90;;;;;;4931688;29;20425;-79
2021/12/20 06:10:37;;;;;;;4.95;1.60;;;7.40;99.90;;;;;;4932173;29;20035;-80
2021/12/20 06:13:03;;;;;;;5.63;1.70;;;7.50;99.90;;;;;;4932511;29;20035;-78
2021/12/20 06:15:29;;;;;;;9.00;1.92;;;7.40;99.90;;;;;;4931265;29;20020;-78
2021/12/20 06:17:55;;;;;;;8.15;2.30;;;7.50;99.90;;;;;;4933289;29;20034;-78
2021/12/20 06:20:21;;;;;;;5.70;2.03;;;7.50;99.90;;;;;;4931482;29;20020;-79
2021/12/20 06:22:46;;;;;;;4.65;2.03;;;7.50;99.90;;;;;;4931159;29;20481;-78
2021/12/20 06:25:12;;;;;;;8.15;2.90;;;7.50;99.90;;;;;;4931669;29;20113;-78
2021/12/20 06:27:39;;;;;;;5.55;1.90;;;7.50;99.90;;;;;;4931559;29;20118;-80
2021/12/20 06:30:08;;;;;;;5.53;1.80;;;7.50;99.90;;;;;;4937240;29;20036;-82
2021/12/20 06:32:38;;;;;;;4.30;2.35;;;7.50;99.90;;;;;;4931763;29;20024;-78
2021/12/20 06:35:05;;;;;;;8.85;2.40;;;7.50;99.90;;;;;;4932106;29;20019;-81
2021/12/20 06:37:31;;;;;;;8.35;2.25;;;7.50;99.90;;;;;;4932561;29;20032;-78
2021/12/20 06:39:57;;;;;;;6.10;2.17;;;7.50;99.90;;;;;;4915927;29;20074;-76
2021/12/20 06:42:23;;;;;;;5.72;1.63;;;7.40;99.90;;;;;;4916127;29;20067;-79
2021/12/20 06:44:48;;;;;;;8.77;2.05;;;7.40;99.90;;;;;;4915395;29;20083;-80
2021/12/20 06:47:14;;;;;;;5.95;2.05;;;7.40;99.90;;;;;;4931545;29;20376;-78
2021/12/20 06:49:40;;;;;;;7.50;1.83;;;7.40;99.90;;;;;;4931998;29;20016;-81
2021/12/20 06:52:05;;;;;;;11.52;2.90;;;7.50;99.90;;;;;;4932506;29;20504;-81
2021/12/20 06:54:31;;;;;;;8.70;2.53;;;7.40;99.90;;;;;;4932512;29;20167;-81
2021/12/20 06:56:57;;;;;;;10.98;2.95;;;7.40;99.90;;;;;;4931026;29;20039;-79
2021/12/20 06:59:23;;;;;;;7.68;2.40;;;7.40;99.90;;;;;;4932761;29;20028;-81
2021/12/20 07:01:49;;;;;;;11.50;3.17;;;7.40;99.90;;;;;;4931433;29;20035;-80
2021/12/20 07:04:15;;;;;;;8.70;2.53;;;7.40;99.90;;;;;;4930914;29;20091;-81
2021/12/20 07:06:42;;;;;;;6.45;2.55;;;7.30;99.90;;;;;;4931585;29;20067;-79
2021/12/20 07:09:08;;;;;;;5.57;2.42;;;7.30;99.90;;;;;;4932761;29;20039;-80
2021/12/20 07:11:34;;;;;;;6.50;2.30;;;7.40;99.90;;;;;;4930699;29;20024;-83
2021/12/20 07:14:00;;;;;;;5.25;1.88;;;7.40;99.90;;;;;;4931391;29;20472;-80
2021/12/20 07:16:25;;;;;;;10.00;2.70;;;7.40;99.90;;;;;;4915695;29;20076;-79
2021/12/20 07:18:51;;;;;;;7.30;2.40;;;7.30;99.90;;;;;;4930661;29;20114;-79
2021/12/20 07:21:17;;;;;;;14.23;3.22;;;7.30;99.90;;;;;;4931851;29;20042;-82
2021/12/20 07:23:43;;;;;;;6.97;2.30;;;7.30;99.90;;;;;;4931614;29;20058;-81
2021/12/20 07:26:12;;;;;;;6.60;2.67;;;7.30;99.90;;;;;;4930685;29;20063;-80
2021/12/20 07:28:41;;;;;;;6.90;2.30;;;7.30;99.90;;;;;;4915486;29;20028;-81
2021/12/20 07:31:07;;;;;;;5.32;2.33;;;7.30;99.90;;;;;;4931211;29;20405;-78
2021/12/20 07:33:32;;;;;;;9.68;2.60;;;7.20;99.90;;;;;;4944188;28;20027;-80
2021/12/20 07:35:58;;;;;;;9.70;2.28;;;7.20;99.90;;;;;;4957830;28;20032;-79
2021/12/20 07:38:24;;;;;;;6.45;2.20;;;7.20;99.90;;;;;;4956033;28;20101;-78
2021/12/20 07:40:50;;;;;;;6.80;2.03;;;7.30;99.90;;;;;;4930948;29;20046;-79
2021/12/20 07:43:17;;;;;;;8.07;2.17;;;7.30;99.90;;;;;;4935431;29;20357;-80
2021/12/20 07:45:47;;;;;;;6.70;1.83;;;7.20;99.90;;;;;;4937854;29;20058;-81
2021/12/20 07:48:14;;;;;;;5.50;1.90;;;7.20;99.90;;;;;;4951638;28;20031;-79
2021/12/20 07:50:39;;;;;;;6.43;2.20;;;7.20;99.90;;;;;;4953643;28;20046;-81
2021/12/20 07:53:05;;;;;;;6.05;1.75;;;7.30;99.90;;;;;;4951619;28;20063;-81
2021/12/20 07:55:30;;;;;;;10.07;2.40;;;7.30;99.90;;;;;;4952203;28;20131;-78
2021/12/20 07:57:57;;;;;;;11.25;2.65;;;7.30;99.90;;;;;;4952549;29;20027;-81
2021/12/20 08:00:23;;;;;;;9.23;2.75;;;7.30;99.90;;;;;;4934479;29;20118;-80
2021/12/20 08:02:49;;;;;;;6.75;1.92;;;7.30;99.90;;;;;;4953633;28;20118;-78
2021/12/20 08:05:18;;;;;;;6.22;2.00;;;7.30;99.90;;;;;;4952925;28;20027;-78
2021/12/20 08:07:45;;;;;;;13.50;2.65;;;7.40;99.90;;;;;;4952968;29;20030;-78
2021/12/20 08:10:11;;;;;;;10.25;2.47;;;7.40;99.90;;;;;;4951656;29;20105;-78
2021/12/20 08:12:37;;;;;;;9.57;2.53;;;7.30;99.90;;;;;;4952501;29;20051;-80
2021/12/20 08:15:04;;;;;;;9.20;2.50;;;7.30;99.90;;;;;;4952895;28;20035;-80
2021/12/20 08:17:31;;;;;;;5.65;2.00;;;7.40;99.90;;;;;;4949917;28;20856;-81
2021/12/20 08:19:57;;;;;;;9.30;2.47;;;7.40;99.90;;;;;;4931543;29;20105;-77
2021/12/20 08:22:25;;;;;;;5.05;1.70;;;7.40;99.90;;;;;;4967110;28;20038;-80
2021/12/20 08:24:51;;;;;;;7.28;2.08;;;7.40;99.90;;;;;;4940346;28;20024;-76
2021/12/20 08:27:17;;;;;;;5.00;1.58;;;7.40;99.90;;;;;;4953573;29;20043;-75
2021/12/20 08:29:43;;;;;;;5.43;2.58;;;7.50;99.90;;;;;;4935973;29;20035;-79
2021/12/20 08:32:09;;;;;;;6.40;2.00;;;7.50;99.90;;;;;;4953691;29;20057;-74
2021/12/20 08:34:35;;;;;;;6.35;1.80;;;7.50;99.90;;;;;;4936588;29;20023;-78
2021/12/20 08:37:01;;;;;;;13.23;2.40;;;7.50;99.90;;;;;;4937306;28;20074;-78
2021/12/20 08:39:28;;;;;;;7.15;2.17;;;7.50;99.90;;;;;;4934220;28;20369;-75
2021/12/20 08:41:56;;;;;;;3.95;2.00;;;7.50;99.90;;;;;;4949393;28;20045;-75
2021/12/20 08:44:23;;;;;;;9.63;2.67;;;7.40;99.90;;;;;;4971602;28;20035;-77
2021/12/20 08:46:49;;;;;;;7.15;2.72;;;7.40;99.90;;;;;;4955159;28;20061;-79
2021/12/20 08:49:15;;;;;;;8.82;2.40;;;7.40;99.90;;;;;;4942712;29;20441;-75
2021/12/20 08:51:40;;;;;;;6.32;2.17;;;7.40;99.90;;;;;;4952211;29;20039;-82
2021/12/20 08:54:06;;;;;;;15.40;2.58;;;7.40;99.90;;;;;;4952397;28;20100;-75
2021/12/20 08:56:32;;;;;;;8.88;2.63;;;7.40;99.90;;;;;;4951535;29;20030;-78
2021/12/20 08:58:58;;;;;;;7.90;2.25;;;7.40;99.90;;;;;;4950850;28;20062;-79
2021/12/20 09:01:23;;;;;;;8.60;2.33;;;7.40;99.90;;;;;;4931598;29;20042;-79
2021/12/20 09:03:49;;;;;;;9.57;2.45;;;7.40;99.90;;;;;;4935453;29;20503;-81
2021/12/20 09:06:15;;;;;;;8.45;2.38;;;7.40;99.90;;;;;;4935549;29;20459;-78
2021/12/20 09:08:42;;;;;;;7.20;2.10;;;7.40;99.90;;;;;;4953023;29;20023;-81
2021/12/20 09:11:08;;;;;;;10.95;3.03;;;7.40;99.90;;;;;;4951006;28;20027;-81
2021/12/20 09:13:33;;;;;;;7.38;2.13;;;7.40;99.90;;;;;;4936709;28;20031;-76
2021/12/20 09:15:59;;;;;;;9.48;2.47;;;7.50;99.90;;;;;;4954487;28;20512;-79
2021/12/20 09:18:27;;;;;;;8.40;2.75;;;7.50;99.90;;;;;;4950237;28;20110;-74
2021/12/20 09:20:54;;;;;;;6.40;2.08;;;7.50;99.90;;;;;;4952914;28;20038;-75
2021/12/20 09:23:20;;;;;;;7.07;2.45;;;7.60;99.90;;;;;;4951101;28;20016;-75
2021/12/20 09:25:46;;;;;;;6.63;2.03;;;7.60;99.90;;;;;;4957562;28;20082;-79
2021/12/20 09:28:14;;;;;;;7.53;2.40;;;7.60;99.90;;;;;;4951268;29;20041;-80
2021/12/20 09:30:42;;;;;;;5.28;1.83;;;7.60;99.90;;;;;;4951514;29;20048;-74
2021/12/20 09:33:09;;;;;;;5.95;2.00;;;7.70;99.90;;;;;;4949955;28;20059;-77
2021/12/20 09:35:35;;;;;;;5.75;2.63;;;7.70;99.90;;;;;;4951761;28;20178;-75
2021/12/20 09:38:06;;;;;;;6.05;2.08;;;7.70;99.90;;;;;;4951380;28;20023;-74
2021/12/20 09:40:34;;;;;;;6.35;2.03;;;7.60;99.90;;;;;;4928713;29;20452;-76
2021/12/20 09:43:03;;;;;;;6.05;2.10;;;7.60;99.90;;;;;;4943786;29;20033;-75
2021/12/20 09:45:30;;;;;;;5.32;2.83;;;7.50;99.90;;;;;;4951172;28;20094;-74
2021/12/20 09:47:56;;;;;;;6.30;2.17;;;7.40;99.90;;;;;;4950823;28;20463;-73
2021/12/20 09:50:22;;;;;;;4.40;1.65;;;7.30;99.90;;;;;;4950596;28;20043;-73
2021/12/20 09:52:48;;;;;;;5.78;2.00;;;7.30;99.90;;;;;;4950452;29;20027;-73
2021/12/20 09:55:15;;;;;;;7.47;2.00;;;7.20;99.90;;;;;;4949830;28;20043;-75
2021/12/20 09:57:45;;;;;;;7.90;2.80;;;7.20;99.90;;;;;;4916386;29;20043;-74
2021/12/20 10:00:13;;;;;;;5.65;2.60;;;7.20;99.90;;;;;;4931423;29;20019;-74
2021/12/20 10:02:38;;;;;;;11.48;2.92;;;7.20;99.90;;;;;;4951893;29;20043;-73
2021/12/20 10:05:04;;;;;;;6.40;1.80;;;7.10;99.90;;;;;;4951498;28;20031;-73
2021/12/20 10:07:33;;;;;;;4.80;1.80;;;7.10;99.90;;;;;;4950286;29;20038;-75
2021/12/20 10:10:00;;;;;;;4.80;2.00;;;7.10;99.90;;;;;;4949726;28;20051;-74
2021/12/20 10:12:27;;;;;;;6.85;2.25;;;7.10;99.90;;;;;;4934307;29;20023;-73
2021/12/20 10:14:54;;;;;;;5.63;2.42;;;7.00;99.90;;;;;;4950310;28;20039;-76
2021/12/20 10:17:20;;;;;;;5.57;2.30;;;7.00;99.90;;;;;;4933644;29;20035;-71
2021/12/20 10:19:46;;;;;;;5.28;2.10;;;7.00;99.90;;;;;;4951793;29;20483;-76
2021/12/20 10:22:28;;;;;;;10.00;2.67;;;7.00;99.90;;;;;;4949055;28;20087;-74
2021/12/20 10:24:58;;;;;;;5.95;2.25;;;6.90;99.90;;;;;;4947618;29;20419;-73
2021/12/20 10:27:32;;;;;;;5.13;2.08;;;7.00;99.90;;;;;;4949346;29;20023;-75
2021/12/20 10:30:00;;;;;;;6.10;2.20;;;6.90;99.90;;;;;;4945875;28;20044;-80
2021/12/20 10:32:39;;;;;;;4.90;1.73;;;6.90;99.90;;;;;;4926806;29;20025;-73
2021/12/20 10:35:25;;;;;;;7.10;1.77;;;6.90;99.90;;;;;;4921142;29;20103;-74
2021/12/20 10:37:52;;;;;;;4.97;2.17;;;6.90;99.90;;;;;;4929504;29;20106;-79
2021/12/20 10:40:18;;;;;;;4.53;1.98;;;6.90;99.90;;;;;;4945916;28;20062;-79
2021/12/20 10:42:44;;;;;;;6.22;2.03;;;6.90;99.90;;;;;;4947153;28;20059;-76
2021/12/20 10:45:14;;;;;;;7.13;2.45;;;6.80;99.90;;;;;;4947202;28;20058;-79
2021/12/20 10:47:42;;;;;;;5.13;2.03;;;6.80;99.90;;;;;;4942585;28;20040;-79
2021/12/20 10:50:27;;;;;;;5.85;2.30;;;6.80;99.90;;;;;;4930848;29;20070;-80
2021/12/20 10:53:09;;;;;;;5.70;2.00;;;6.80;99.90;;;;;;4931147;29;20031;-78
2021/12/20 10:55:56;;;;;;;5.25;2.25;;;6.80;99.90;;;;;;4932087;29;20032;-78
2021/12/20 10:58:29;;;;;;;6.57;2.55;;;6.80;99.90;;;;;;4931293;29;20028;-76
2021/12/20 11:01:14;;;;;;;6.30;1.98;;;6.80;99.90;;;;;;4939998;29;20114;-76
2021/12/20 11:03:41;;;;;;;8.93;2.63;;;6.70;99.90;;;;;;4928088;29;20040;-82
2021/12/20 11:11:26;;;;;;;12.50;3.38;;;6.70;99.90;;;;;;4935455;29;20106;-73
2021/12/20 11:13:52;;;;;;;7.60;2.63;;;6.70;99.90;;;;;;4935179;29;20487;-74
2021/12/20 11:16:33;;;;;;;9.23;3.08;;;6.70;99.90;;;;;;4940856;29;20023;-78
2021/12/20 11:19:17;;;;;;;7.20;2.60;;;6.70;99.90;;;;;;4934168;29;20054;-76
2021/12/20 11:21:53;;;;;;;6.88;2.92;;;6.70;99.90;;;;;;4930761;29;20052;-81
2021/12/20 11:24:23;;;;;;;6.05;2.42;;;6.60;99.90;;;;;;4915559;29;20036;-77
2021/12/20 11:26:50;;;;;;;6.28;2.40;;;6.60;99.90;;;;;;4931371;29;20040;-79
2021/12/20 11:29:16;;;;;;;8.50;2.72;;;6.70;99.90;;;;;;4933252;29;20131;-77
2021/12/20 11:31:43;;;;;;;9.10;2.95;;;6.70;99.90;;;;;;4946951;29;20035;-80
2021/12/20 11:34:09;;;;;;;10.02;2.95;;;6.60;99.90;;;;;;4940610;29;20090;-73
2021/12/20 11:36:36;;;;;;;9.82;3.47;;;6.60;99.90;;;;;;4952251;28;20039;-77
2021/12/20 11:39:04;;;;;;;9.55;2.85;;;6.60;99.90;;;;;;4965038;28;20019;-74
2021/12/20 11:41:31;;;;;;;8.95;2.63;;;6.60;99.90;;;;;;4956629;28;20117;-81
2021/12/20 11:43:57;;;;;;;8.82;2.63;;;6.60;99.90;;;;;;4936550;29;20127;-77
2021/12/20 11:46:37;;;;;;;7.95;2.47;;;6.70;99.90;;;;;;4933789;29;20122;-78
2021/12/20 11:49:03;;;;;;;6.78;2.58;;;6.70;99.90;;;;;;4946870;28;20027;-73
2021/12/20 11:51:48;;;;;;;12.20;3.47;;;6.70;99.90;;;;;;4944432;28;20030;-80
2021/12/20 11:54:38;;;;;;;6.00;2.13;;;6.70;99.90;;;;;;4955730;28;20026;-80
2021/12/20 11:57:05;;;;;;;13.52;3.03;;;6.70;99.90;;;;;;4956745;28;20022;-79
2021/12/20 12:00:04;;;;;;;7.63;2.40;;;6.70;99.90;;;;;;4969080;28;20484;-81
2021/12/20 12:02:32;;;;;;;7.85;2.42;;;6.70;99.90;;;;;;4953145;29;20047;-76
2021/12/20 12:05:04;;;;;;;6.28;2.40;;;6.70;99.90;;;;;;4953016;28;20019;-76
2021/12/20 12:07:35;;;;;;;7.53;2.72;;;6.70;99.90;;;;;;4936974;29;20791;-75
2021/12/20 12:10:12;;;;;;;5.25;1.90;;;6.70;99.90;;;;;;4952681;28;20024;-75
2021/12/20 12:12:44;;;;;;;4.72;1.60;;;6.70;99.90;;;;;;4952375;29;20028;-75
2021/12/20 12:15:28;;;;;;;7.68;2.03;;;6.70;99.90;;;;;;4967076;28;20050;-76
2021/12/20 12:17:58;;;;;;;4.93;1.75;;;6.70;99.90;;;;;;4956133;28;20114;-75
2021/12/20 12:20:53;;;;;;;8.18;2.33;;;6.70;99.90;;;;;;4953732;28;20035;-76
2021/12/20 12:23:27;;;;;;;6.38;2.00;;;6.70;99.90;;;;;;4955366;28;20062;-76
2021/12/20 12:25:58;;;;;;;11.38;3.13;;;6.60;99.90;;;;;;4972493;28;20110;-74
2021/12/20 12:28:26;;;;;;;10.13;2.78;;;6.60;99.90;;;;;;4954578;28;20019;-77
2021/12/20 12:31:10;;;;;;;6.32;2.47;;;6.70;99.90;;;;;;4946692;29;20032;-78
2021/12/20 12:33:40;;;;;;;6.60;1.90;;;6.70;99.90;;;;;;4950111;28;20391;-77
2021/12/20 12:36:31;;;;;;;5.80;2.30;;;6.70;99.90;;;;;;4952014;29;20035;-76
2021/12/20 12:39:05;;;;;;;7.30;2.55;;;6.70;99.90;;;;;;4950085;29;20150;-77
2021/12/20 12:41:41;;;;;;;9.73;3.65;;;6.70;99.90;;;;;;4951136;28;20035;-80
2021/12/20 12:44:24;;;;;;;8.63;2.25;;;6.60;99.90;;;;;;4932408;29;20031;-78
2021/12/20 12:47:13;;;;;;;5.53;2.17;;;6.70;99.90;;;;;;4920988;29;20058;-76
2021/12/20 12:49:45;;;;;;;6.75;2.53;;;6.70;99.90;;;;;;4916848;29;20032;-77
2021/12/20 12:52:17;;;;;;;7.88;2.65;;;6.60;99.90;;;;;;4917937;29;20136;-78
2021/12/20 12:54:44;;;;;;;6.60;2.42;;;6.60;99.90;;;;;;4934518;29;20031;-82
2021/12/20 12:57:09;;;;;;;9.65;2.85;;;6.60;99.90;;;;;;4934151;28;20396;-76
2021/12/20 12:59:58;;;;;;;8.38;2.47;;;6.60;99.90;;;;;;4935105;29;20031;-76
2021/12/20 13:02:45;;;;;;;5.05;2.35;;;6.60;99.90;;;;;;4948761;28;20051;-78
2021/12/20 13:05:22;;;;;;;12.43;3.42;;;6.60;99.90;;;;;;4951577;29;20027;-78
2021/12/20 13:07:51;;;;;;;4.70;2.70;;;6.60;99.90;;;;;;4950760;29;20087;-77
2021/12/20 13:10:29;;;;;;;9.65;3.88;;;6.60;99.90;;;;;;4949906;29;20341;-81
2021/12/20 13:13:06;;;;;;;6.32;2.22;;;6.60;99.90;;;;;;4936496;29;20078;-77
2021/12/20 13:18:14;;;;;;;7.03;2.30;;;6.60;99.90;;;;;;4960406;28;20039;-78
2021/12/20 13:20:56;;;;;;;5.90;2.35;;;6.60;99.90;;;;;;4971853;28;20023;-77